sensor_id;sensor_type;location;lat;lon;timestamp;P1;durP1;ratioP1;P2;durP2;ratioP2
36445;SDS011;22472;50.848;-1.216;2023-07-20T00:01:52;4.45;;;1.23;;
36445;SDS011;22472;50.848;-1.216;2023-07-20T00:04:21;2.75;;;1.38;;
36445;SDS011;22472;50.848;-1.216;2023-07-20T00:09:18;5.13;;;1.60;;
36445;SDS011;22472;50.848;-1.216;2023-07-20T00:11:48;5.13;;;1.52;;
36445;SDS011;22472;50.848;-1.216;2023-07-20T00:14:16;5.15;;;1.52;;
36445;SDS011;22472;50.848;-1.216;2023-07-20T00:16:43;3.88;;;1.65;;
36445;SDS011;22472;50.848;-1.216;2023-07-20T00:19:11;4.07;;;1.60;;
36445;SDS011;22472;50.848;-1.216;2023-07-20T00:21:40;6.15;;;1.70;;
36445;SDS011;22472;50.848;-1.216;2023-07-20T00:24:07;3.10;;;1.35;;
36445;SDS011;22472;50.848;-1.216;2023-07-20T00:26:35;4.65;;;1.83;;
36445;SDS011;22472;50.848;-1.216;2023-07-20T00:29:02;4.45;;;1.70;;
36445;SDS011;22472;50.848;-1.216;2023-07-20T00:31:29;6.35;;;1.70;;
36445;SDS011;22472;50.848;-1.216;2023-07-20T00:33:57;3.28;;;1.58;;
36445;SDS011;22472;50.848;-1.216;2023-07-20T00:36:24;4.10;;;1.73;;
36445;SDS011;22472;50.848;-1.216;2023-07-20T00:38:53;4.13;;;1.52;;
36445;SDS011;22472;50.848;-1.216;2023-07-20T00:41:20;5.40;;;1.85;;
36445;SDS011;22472;50.848;-1.216;2023-07-20T00:43:47;6.07;;;2.03;;
36445;SDS011;22472;50.848;-1.216;2023-07-20T00:46:14;1.63;;;1.27;;
36445;SDS011;22472;50.848;-1.216;2023-07-20T00:48:42;3.40;;;1.40;;
36445;SDS011;22472;50.848;-1.216;2023-07-20T00:51:09;4.60;;;1.70;;
36445;SDS011;22472;50.848;-1.216;2023-07-20T00:53:37;3.05;;;1.70;;
36445;SDS011;22472;50.848;-1.216;2023-07-20T00:56:07;3.53;;;1.85;;
36445;SDS011;22472;50.848;-1.216;2023-07-20T00:58:34;3.15;;;1.83;;
36445;SDS011;22472;50.848;-1.216;2023-07-20T01:01:02;3.95;;;1.90;;
36445;SDS011;22472;50.848;-1.216;2023-07-20T01:03:29;3.30;;;2.10;;
36445;SDS011;22472;50.848;-1.216;2023-07-20T01:05:59;4.40;;;2.00;;
36445;SDS011;22472;50.848;-1.216;2023-07-20T01:08:31;4.80;;;1.83;;
36445;SDS011;22472;50.848;-1.216;2023-07-20T01:13:28;5.50;;;1.95;;
36445;SDS011;22472;50.848;-1.216;2023-07-20T01:15:56;4.32;;;1.98;;
36445;SDS011;22472;50.848;-1.216;2023-07-20T01:18:24;3.65;;;1.98;;
36445;SDS011;22472;50.848;-1.216;2023-07-20T01:20:51;5.25;;;2.10;;
36445;SDS011;22472;50.848;-1.216;2023-07-20T01:23:22;5.55;;;2.15;;
36445;SDS011;22472;50.848;-1.216;2023-07-20T01:26:08;5.63;;;1.92;;
36445;SDS011;22472;50.848;-1.216;2023-07-20T01:28:42;5.57;;;2.40;;
36445;SDS011;22472;50.848;-1.216;2023-07-20T01:31:18;4.18;;;1.85;;
36445;SDS011;22472;50.848;-1.216;2023-07-20T01:33:47;3.50;;;2.00;;
36445;SDS011;22472;50.848;-1.216;2023-07-20T01:36:15;4.43;;;2.30;;
36445;SDS011;22472;50.848;-1.216;2023-07-20T01:38:43;5.90;;;2.67;;
36445;SDS011;22472;50.848;-1.216;2023-07-20T01:41:11;7.20;;;2.58;;
36445;SDS011;22472;50.848;-1.216;2023-07-20T01:43:38;4.18;;;2.10;;
36445;SDS011;22472;50.848;-1.216;2023-07-20T01:46:06;6.20;;;2.50;;
36445;SDS011;22472;50.848;-1.216;2023-07-20T01:48:34;5.03;;;2.47;;
36445;SDS011;22472;50.848;-1.216;2023-07-20T01:51:02;3.28;;;2.10;;
36445;SDS011;22472;50.848;-1.216;2023-07-20T01:53:29;4.50;;;1.80;;
36445;SDS011;22472;50.848;-1.216;2023-07-20T01:55:56;3.75;;;2.30;;
36445;SDS011;22472;50.848;-1.216;2023-07-20T01:58:24;6.28;;;2.17;;
36445;SDS011;22472;50.848;-1.216;2023-07-20T02:00:51;4.00;;;2.40;;
36445;SDS011;22472;50.848;-1.216;2023-07-20T02:03:19;3.80;;;2.53;;
36445;SDS011;22472;50.848;-1.216;2023-07-20T02:05:50;5.70;;;2.75;;
36445;SDS011;22472;50.848;-1.216;2023-07-20T02:08:17;3.28;;;2.65;;
36445;SDS011;22472;50.848;-1.216;2023-07-20T02:10:45;4.60;;;2.70;;
36445;SDS011;22472;50.848;-1.216;2023-07-20T02:13:12;6.32;;;3.10;;
36445;SDS011;22472;50.848;-1.216;2023-07-20T02:15:39;4.75;;;2.70;;
36445;SDS011;22472;50.848;-1.216;2023-07-20T02:18:07;6.32;;;2.90;;
36445;SDS011;22472;50.848;-1.216;2023-07-20T02:20:34;4.28;;;3.10;;
36445;SDS011;22472;50.848;-1.216;2023-07-20T02:23:03;5.25;;;3.08;;
36445;SDS011;22472;50.848;-1.216;2023-07-20T02:25:30;4.63;;;2.97;;
36445;SDS011;22472;50.848;-1.216;2023-07-20T02:27:58;5.65;;;3.35;;
36445;SDS011;22472;50.848;-1.216;2023-07-20T02:30:25;5.05;;;2.67;;
36445;SDS011;22472;50.848;-1.216;2023-07-20T02:33:13;5.03;;;2.88;;
36445;SDS011;22472;50.848;-1.216;2023-07-20T02:35:41;4.72;;;3.10;;
36445;SDS011;22472;50.848;-1.216;2023-07-20T02:38:10;6.35;;;3.60;;
36445;SDS011;22472;50.848;-1.216;2023-07-20T02:40:37;5.43;;;3.45;;
36445;SDS011;22472;50.848;-1.216;2023-07-20T02:43:04;7.13;;;3.55;;
36445;SDS011;22472;50.848;-1.216;2023-07-20T02:45:31;6.60;;;3.08;;
36445;SDS011;22472;50.848;-1.216;2023-07-20T02:47:59;4.90;;;3.30;;
36445;SDS011;22472;50.848;-1.216;2023-07-20T02:50:27;4.63;;;3.00;;
36445;SDS011;22472;50.848;-1.216;2023-07-20T02:52:54;6.10;;;3.22;;
36445;SDS011;22472;50.848;-1.216;2023-07-20T02:55:23;6.35;;;3.42;;
36445;SDS011;22472;50.848;-1.216;2023-07-20T02:57:50;4.50;;;3.13;;
36445;SDS011;22472;50.848;-1.216;2023-07-20T03:00:18;6.97;;;2.97;;
36445;SDS011;22472;50.848;-1.216;2023-07-20T03:02:48;5.22;;;3.55;;
36445;SDS011;22472;50.848;-1.216;2023-07-20T03:05:20;4.78;;;3.20;;
36445;SDS011;22472;50.848;-1.216;2023-07-20T03:07:48;5.30;;;3.38;;
36445;SDS011;22472;50.848;-1.216;2023-07-20T03:10:16;5.32;;;3.47;;
36445;SDS011;22472;50.848;-1.216;2023-07-20T03:12:44;6.72;;;3.30;;
36445;SDS011;22472;50.848;-1.216;2023-07-20T03:15:12;4.55;;;2.95;;
36445;SDS011;22472;50.848;-1.216;2023-07-20T03:17:39;7.28;;;3.20;;
36445;SDS011;22472;50.848;-1.216;2023-07-20T03:20:07;5.45;;;3.38;;
36445;SDS011;22472;50.848;-1.216;2023-07-20T03:22:35;5.30;;;3.63;;
36445;SDS011;22472;50.848;-1.216;2023-07-20T03:25:03;6.80;;;3.60;;
36445;SDS011;22472;50.848;-1.216;2023-07-20T03:27:31;6.53;;;3.83;;
36445;SDS011;22472;50.848;-1.216;2023-07-20T03:29:59;6.78;;;3.80;;
36445;SDS011;22472;50.848;-1.216;2023-07-20T03:32:27;4.00;;;3.30;;
36445;SDS011;22472;50.848;-1.216;2023-07-20T03:34:54;5.45;;;3.60;;
36445;SDS011;22472;50.848;-1.216;2023-07-20T03:37:21;5.15;;;3.70;;
36445;SDS011;22472;50.848;-1.216;2023-07-20T03:39:48;9.05;;;3.67;;
36445;SDS011;22472;50.848;-1.216;2023-07-20T03:42:16;6.07;;;3.03;;
36445;SDS011;22472;50.848;-1.216;2023-07-20T03:44:43;4.03;;;3.20;;
36445;SDS011;22472;50.848;-1.216;2023-07-20T03:47:12;4.95;;;3.40;;
36445;SDS011;22472;50.848;-1.216;2023-07-20T03:49:39;5.47;;;3.60;;
36445;SDS011;22472;50.848;-1.216;2023-07-20T03:52:07;8.30;;;4.13;;
36445;SDS011;22472;50.848;-1.216;2023-07-20T03:54:34;4.85;;;3.25;;
36445;SDS011;22472;50.848;-1.216;2023-07-20T03:57:02;6.38;;;3.83;;
36445;SDS011;22472;50.848;-1.216;2023-07-20T03:59:29;5.55;;;3.78;;
36445;SDS011;22472;50.848;-1.216;2023-07-20T04:01:56;4.10;;;3.42;;
36445;SDS011;22472;50.848;-1.216;2023-07-20T04:04:25;6.43;;;4.30;;
36445;SDS011;22472;50.848;-1.216;2023-07-20T04:06:52;6.13;;;4.05;;
36445;SDS011;22472;50.848;-1.216;2023-07-20T04:09:19;6.97;;;3.83;;
36445;SDS011;22472;50.848;-1.216;2023-07-20T04:11:47;8.38;;;4.03;;
36445;SDS011;22472;50.848;-1.216;2023-07-20T04:14:14;6.72;;;3.63;;
36445;SDS011;22472;50.848;-1.216;2023-07-20T04:16:41;6.70;;;3.72;;
36445;SDS011;22472;50.848;-1.216;2023-07-20T04:19:08;5.03;;;3.40;;
36445;SDS011;22472;50.848;-1.216;2023-07-20T04:21:40;5.53;;;3.38;;
36445;SDS011;22472;50.848;-1.216;2023-07-20T04:24:08;4.70;;;3.40;;
36445;SDS011;22472;50.848;-1.216;2023-07-20T04:26:35;5.47;;;3.33;;
36445;SDS011;22472;50.848;-1.216;2023-07-20T04:29:02;5.97;;;3.25;;
36445;SDS011;22472;50.848;-1.216;2023-07-20T04:31:30;4.65;;;3.00;;
36445;SDS011;22472;50.848;-1.216;2023-07-20T04:33:58;4.03;;;2.80;;
36445;SDS011;22472;50.848;-1.216;2023-07-20T04:36:26;4.85;;;2.58;;
36445;SDS011;22472;50.848;-1.216;2023-07-20T04:38:54;4.85;;;2.72;;
36445;SDS011;22472;50.848;-1.216;2023-07-20T04:41:22;6.13;;;3.05;;
36445;SDS011;22472;50.848;-1.216;2023-07-20T04:43:50;5.93;;;2.97;;
36445;SDS011;22472;50.848;-1.216;2023-07-20T04:46:17;4.80;;;2.95;;
36445;SDS011;22472;50.848;-1.216;2023-07-20T04:48:46;3.88;;;2.72;;
36445;SDS011;22472;50.848;-1.216;2023-07-20T04:51:14;5.43;;;3.20;;
36445;SDS011;22472;50.848;-1.216;2023-07-20T04:53:42;4.40;;;2.60;;
36445;SDS011;22472;50.848;-1.216;2023-07-20T04:56:11;6.28;;;3.00;;
36445;SDS011;22472;50.848;-1.216;2023-07-20T04:58:38;4.80;;;2.80;;
36445;SDS011;22472;50.848;-1.216;2023-07-20T05:01:05;6.22;;;2.90;;
36445;SDS011;22472;50.848;-1.216;2023-07-20T05:03:33;4.97;;;2.88;;
36445;SDS011;22472;50.848;-1.216;2023-07-20T05:06:00;3.40;;;2.35;;
36445;SDS011;22472;50.848;-1.216;2023-07-20T05:08:27;4.20;;;2.70;;
36445;SDS011;22472;50.848;-1.216;2023-07-20T05:10:54;4.82;;;2.83;;
36445;SDS011;22472;50.848;-1.216;2023-07-20T05:13:23;5.15;;;2.70;;
36445;SDS011;22472;50.848;-1.216;2023-07-20T05:15:51;4.50;;;2.83;;
36445;SDS011;22472;50.848;-1.216;2023-07-20T05:18:18;4.30;;;2.80;;
36445;SDS011;22472;50.848;-1.216;2023-07-20T05:20:46;5.18;;;2.42;;
36445;SDS011;22472;50.848;-1.216;2023-07-20T05:23:13;4.63;;;2.20;;
36445;SDS011;22472;50.848;-1.216;2023-07-20T05:25:40;5.18;;;2.25;;
36445;SDS011;22472;50.848;-1.216;2023-07-20T05:28:08;5.80;;;2.15;;
36445;SDS011;22472;50.848;-1.216;2023-07-20T05:30:37;4.10;;;2.42;;
36445;SDS011;22472;50.848;-1.216;2023-07-20T05:33:04;3.83;;;2.20;;
36445;SDS011;22472;50.848;-1.216;2023-07-20T05:35:31;5.53;;;2.28;;
36445;SDS011;22472;50.848;-1.216;2023-07-20T05:37:58;3.70;;;2.10;;
36445;SDS011;22472;50.848;-1.216;2023-07-20T05:40:26;4.70;;;2.13;;
36445;SDS011;22472;50.848;-1.216;2023-07-20T05:42:53;4.22;;;1.88;;
36445;SDS011;22472;50.848;-1.216;2023-07-20T05:45:22;3.88;;;1.85;;
36445;SDS011;22472;50.848;-1.216;2023-07-20T05:47:50;3.78;;;2.30;;
36445;SDS011;22472;50.848;-1.216;2023-07-20T05:50:18;2.28;;;1.70;;
36445;SDS011;22472;50.848;-1.216;2023-07-20T05:52:45;2.95;;;1.58;;
36445;SDS011;22472;50.848;-1.216;2023-07-20T05:55:13;3.75;;;2.03;;
36445;SDS011;22472;50.848;-1.216;2023-07-20T05:57:40;4.45;;;2.08;;
36445;SDS011;22472;50.848;-1.216;2023-07-20T06:00:09;4.18;;;1.80;;
36445;SDS011;22472;50.848;-1.216;2023-07-20T06:02:37;3.63;;;1.65;;
36445;SDS011;22472;50.848;-1.216;2023-07-20T06:05:07;3.58;;;1.50;;
36445;SDS011;22472;50.848;-1.216;2023-07-20T06:07:35;3.03;;;1.30;;
36445;SDS011;22472;50.848;-1.216;2023-07-20T06:10:02;4.50;;;1.42;;
36445;SDS011;22472;50.848;-1.216;2023-07-20T06:12:29;4.03;;;1.50;;
36445;SDS011;22472;50.848;-1.216;2023-07-20T06:14:57;3.63;;;1.35;;
36445;SDS011;22472;50.848;-1.216;2023-07-20T06:17:25;4.05;;;1.50;;
36445;SDS011;22472;50.848;-1.216;2023-07-20T06:19:52;3.60;;;1.40;;
36445;SDS011;22472;50.848;-1.216;2023-07-20T06:22:20;2.08;;;1.40;;
36445;SDS011;22472;50.848;-1.216;2023-07-20T06:24:48;2.83;;;1.40;;
36445;SDS011;22472;50.848;-1.216;2023-07-20T06:27:15;3.60;;;1.42;;
36445;SDS011;22472;50.848;-1.216;2023-07-20T06:29:42;1.90;;;1.23;;
36445;SDS011;22472;50.848;-1.216;2023-07-20T06:32:09;3.13;;;1.40;;
36445;SDS011;22472;50.848;-1.216;2023-07-20T06:34:37;4.05;;;1.83;;
36445;SDS011;22472;50.848;-1.216;2023-07-20T06:37:04;4.07;;;1.38;;
36445;SDS011;22472;50.848;-1.216;2023-07-20T06:39:33;3.00;;;1.20;;
36445;SDS011;22472;50.848;-1.216;2023-07-20T06:42:00;4.18;;;1.30;;
36445;SDS011;22472;50.848;-1.216;2023-07-20T06:44:27;3.67;;;1.13;;
36445;SDS011;22472;50.848;-1.216;2023-07-20T06:46:55;2.78;;;1.10;;
36445;SDS011;22472;50.848;-1.216;2023-07-20T06:49:25;2.90;;;1.20;;
36445;SDS011;22472;50.848;-1.216;2023-07-20T06:54:20;3.40;;;1.20;;
36445;SDS011;22472;50.848;-1.216;2023-07-20T06:56:49;4.38;;;1.15;;
36445;SDS011;22472;50.848;-1.216;2023-07-20T06:59:16;2.22;;;1.10;;
36445;SDS011;22472;50.848;-1.216;2023-07-20T07:01:43;2.50;;;1.40;;
36445;SDS011;22472;50.848;-1.216;2023-07-20T07:04:10;2.60;;;1.00;;
36445;SDS011;22472;50.848;-1.216;2023-07-20T07:06:38;3.60;;;1.10;;
36445;SDS011;22472;50.848;-1.216;2023-07-20T07:09:05;1.25;;;0.77;;
36445;SDS011;22472;50.848;-1.216;2023-07-20T07:11:33;3.25;;;1.08;;
36445;SDS011;22472;50.848;-1.216;2023-07-20T07:14:02;2.63;;;1.00;;
36445;SDS011;22472;50.848;-1.216;2023-07-20T07:16:29;2.13;;;1.05;;
36445;SDS011;22472;50.848;-1.216;2023-07-20T07:18:56;3.05;;;0.80;;
36445;SDS011;22472;50.848;-1.216;2023-07-20T07:21:24;3.88;;;0.93;;
36445;SDS011;22472;50.848;-1.216;2023-07-20T07:23:52;1.98;;;0.63;;
36445;SDS011;22472;50.848;-1.216;2023-07-20T07:26:22;2.75;;;0.88;;
36445;SDS011;22472;50.848;-1.216;2023-07-20T07:28:50;3.70;;;0.90;;
36445;SDS011;22472;50.848;-1.216;2023-07-20T07:31:18;2.30;;;0.80;;
36445;SDS011;22472;50.848;-1.216;2023-07-20T07:33:46;3.50;;;0.70;;
36445;SDS011;22472;50.848;-1.216;2023-07-20T07:36:13;2.35;;;0.80;;
36445;SDS011;22472;50.848;-1.216;2023-07-20T07:38:40;3.47;;;0.80;;
36445;SDS011;22472;50.848;-1.216;2023-07-20T07:41:08;1.60;;;0.70;;
36445;SDS011;22472;50.848;-1.216;2023-07-20T07:43:35;3.33;;;1.08;;
36445;SDS011;22472;50.848;-1.216;2023-07-20T07:46:03;3.80;;;0.85;;
36445;SDS011;22472;50.848;-1.216;2023-07-20T07:48:32;2.13;;;0.80;;
36445;SDS011;22472;50.848;-1.216;2023-07-20T07:50:59;5.18;;;1.25;;
36445;SDS011;22472;50.848;-1.216;2023-07-20T07:53:26;3.08;;;0.85;;
36445;SDS011;22472;50.848;-1.216;2023-07-20T07:55:53;2.20;;;0.88;;
36445;SDS011;22472;50.848;-1.216;2023-07-20T07:58:21;3.35;;;1.02;;
36445;SDS011;22472;50.848;-1.216;2023-07-20T08:00:48;2.75;;;1.10;;
36445;SDS011;22472;50.848;-1.216;2023-07-20T08:03:15;4.43;;;0.90;;
36445;SDS011;22472;50.848;-1.216;2023-07-20T08:05:45;2.95;;;1.00;;
36445;SDS011;22472;50.848;-1.216;2023-07-20T08:08:12;4.22;;;0.90;;
36445;SDS011;22472;50.848;-1.216;2023-07-20T08:10:39;2.88;;;0.90;;
36445;SDS011;22472;50.848;-1.216;2023-07-20T08:13:07;2.92;;;1.10;;
36445;SDS011;22472;50.848;-1.216;2023-07-20T08:15:34;4.50;;;1.00;;
36445;SDS011;22472;50.848;-1.216;2023-07-20T08:18:01;3.67;;;1.17;;
36445;SDS011;22472;50.848;-1.216;2023-07-20T08:20:29;3.20;;;0.73;;
36445;SDS011;22472;50.848;-1.216;2023-07-20T08:22:58;2.63;;;0.60;;
36445;SDS011;22472;50.848;-1.216;2023-07-20T08:25:25;3.05;;;0.90;;
36445;SDS011;22472;50.848;-1.216;2023-07-20T08:27:53;1.98;;;0.77;;
36445;SDS011;22472;50.848;-1.216;2023-07-20T08:30:21;1.98;;;0.60;;
36445;SDS011;22472;50.848;-1.216;2023-07-20T08:32:49;2.40;;;0.65;;
36445;SDS011;22472;50.848;-1.216;2023-07-20T08:35:16;3.95;;;0.63;;
36445;SDS011;22472;50.848;-1.216;2023-07-20T08:37:44;3.25;;;0.70;;
36445;SDS011;22472;50.848;-1.216;2023-07-20T08:40:13;2.28;;;0.50;;
36445;SDS011;22472;50.848;-1.216;2023-07-20T08:42:41;1.75;;;0.70;;
36445;SDS011;22472;50.848;-1.216;2023-07-20T08:45:09;2.65;;;0.55;;
36445;SDS011;22472;50.848;-1.216;2023-07-20T08:47:39;2.22;;;0.60;;
36445;SDS011;22472;50.848;-1.216;2023-07-20T08:50:08;1.90;;;0.50;;
36445;SDS011;22472;50.848;-1.216;2023-07-20T08:52:36;1.75;;;0.50;;
36445;SDS011;22472;50.848;-1.216;2023-07-20T08:55:04;2.15;;;0.40;;
36445;SDS011;22472;50.848;-1.216;2023-07-20T08:57:33;1.17;;;0.40;;
36445;SDS011;22472;50.848;-1.216;2023-07-20T09:00:01;2.55;;;0.55;;
36445;SDS011;22472;50.848;-1.216;2023-07-20T09:02:32;2.80;;;0.30;;
36445;SDS011;22472;50.848;-1.216;2023-07-20T09:05:02;1.73;;;0.38;;
36445;SDS011;22472;50.848;-1.216;2023-07-20T09:07:30;1.70;;;0.35;;
36445;SDS011;22472;50.848;-1.216;2023-07-20T09:09:57;4.45;;;0.50;;
36445;SDS011;22472;50.848;-1.216;2023-07-20T09:12:30;2.72;;;0.40;;
36445;SDS011;22472;50.848;-1.216;2023-07-20T09:14:59;1.58;;;0.20;;
36445;SDS011;22472;50.848;-1.216;2023-07-20T09:17:26;2.40;;;0.30;;
36445;SDS011;22472;50.848;-1.216;2023-07-20T09:19:54;2.17;;;0.30;;
36445;SDS011;22472;50.848;-1.216;2023-07-20T09:22:21;2.92;;;0.50;;
36445;SDS011;22472;50.848;-1.216;2023-07-20T09:24:48;2.75;;;0.45;;
36445;SDS011;22472;50.848;-1.216;2023-07-20T09:27:19;2.45;;;0.30;;
36445;SDS011;22472;50.848;-1.216;2023-07-20T09:29:49;2.33;;;0.20;;
36445;SDS011;22472;50.848;-1.216;2023-07-20T09:32:21;1.67;;;0.20;;
36445;SDS011;22472;50.848;-1.216;2023-07-20T09:34:49;1.17;;;0.30;;
36445;SDS011;22472;50.848;-1.216;2023-07-20T09:37:19;0.68;;;0.20;;
36445;SDS011;22472;50.848;-1.216;2023-07-20T09:39:47;0.82;;;0.25;;
36445;SDS011;22472;50.848;-1.216;2023-07-20T09:42:15;1.35;;;0.28;;
36445;SDS011;22472;50.848;-1.216;2023-07-20T09:44:43;1.00;;;0.20;;
36445;SDS011;22472;50.848;-1.216;2023-07-20T09:47:10;1.17;;;0.22;;
36445;SDS011;22472;50.848;-1.216;2023-07-20T09:49:42;0.98;;;0.20;;
36445;SDS011;22472;50.848;-1.216;2023-07-20T09:52:09;1.80;;;0.25;;
36445;SDS011;22472;50.848;-1.216;2023-07-20T09:54:38;0.85;;;0.25;;
36445;SDS011;22472;50.848;-1.216;2023-07-20T09:57:06;0.57;;;0.13;;
36445;SDS011;22472;50.848;-1.216;2023-07-20T09:59:34;1.30;;;0.30;;
36445;SDS011;22472;50.848;-1.216;2023-07-20T10:02:01;1.48;;;0.20;;
36445;SDS011;22472;50.848;-1.216;2023-07-20T10:04:29;0.98;;;0.20;;
36445;SDS011;22472;50.848;-1.216;2023-07-20T10:06:58;1.70;;;0.30;;
36445;SDS011;22472;50.848;-1.216;2023-07-20T10:11:54;0.68;;;0.28;;
36445;SDS011;22472;50.848;-1.216;2023-07-20T10:14:23;1.25;;;0.30;;
36445;SDS011;22472;50.848;-1.216;2023-07-20T10:16:54;1.65;;;0.30;;
36445;SDS011;22472;50.848;-1.216;2023-07-20T10:19:22;1.33;;;0.20;;
36445;SDS011;22472;50.848;-1.216;2023-07-20T10:21:51;0.90;;;0.20;;
36445;SDS011;22472;50.848;-1.216;2023-07-20T10:24:25;1.50;;;0.30;;
36445;SDS011;22472;50.848;-1.216;2023-07-20T10:26:52;1.67;;;0.20;;
36445;SDS011;22472;50.848;-1.216;2023-07-20T10:29:20;1.98;;;0.20;;
36445;SDS011;22472;50.848;-1.216;2023-07-20T10:31:48;1.38;;;0.40;;
36445;SDS011;22472;50.848;-1.216;2023-07-20T10:34:16;2.55;;;0.52;;
36445;SDS011;22472;50.848;-1.216;2023-07-20T10:36:43;1.40;;;0.30;;
36445;SDS011;22472;50.848;-1.216;2023-07-20T10:39:22;1.05;;;0.30;;
36445;SDS011;22472;50.848;-1.216;2023-07-20T10:41:53;1.23;;;0.30;;
36445;SDS011;22472;50.848;-1.216;2023-07-20T10:44:26;1.02;;;0.22;;
36445;SDS011;22472;50.848;-1.216;2023-07-20T10:46:58;1.23;;;0.25;;
36445;SDS011;22472;50.848;-1.216;2023-07-20T10:49:26;1.38;;;0.30;;
36445;SDS011;22472;50.848;-1.216;2023-07-20T10:51:57;1.02;;;0.30;;
36445;SDS011;22472;50.848;-1.216;2023-07-20T10:54:34;1.02;;;0.30;;
36445;SDS011;22472;50.848;-1.216;2023-07-20T10:59:48;0.77;;;0.20;;
36445;SDS011;22472;50.848;-1.216;2023-07-20T11:02:17;1.45;;;0.20;;
36445;SDS011;22472;50.848;-1.216;2023-07-20T11:07:15;1.77;;;0.30;;
36445;SDS011;22472;50.848;-1.216;2023-07-20T11:09:43;1.73;;;0.30;;
36445;SDS011;22472;50.848;-1.216;2023-07-20T11:12:10;1.75;;;0.28;;
36445;SDS011;22472;50.848;-1.216;2023-07-20T11:14:40;0.60;;;0.20;;
36445;SDS011;22472;50.848;-1.216;2023-07-20T11:17:12;0.57;;;0.20;;
36445;SDS011;22472;50.848;-1.216;2023-07-20T11:19:40;1.50;;;0.30;;
36445;SDS011;22472;50.848;-1.216;2023-07-20T11:22:07;0.77;;;0.30;;
36445;SDS011;22472;50.848;-1.216;2023-07-20T11:24:37;2.15;;;0.30;;
36445;SDS011;22472;50.848;-1.216;2023-07-20T11:27:05;0.95;;;0.30;;
36445;SDS011;22472;50.848;-1.216;2023-07-20T11:29:33;0.68;;;0.30;;
36445;SDS011;22472;50.848;-1.216;2023-07-20T11:32:00;1.17;;;0.38;;
36445;SDS011;22472;50.848;-1.216;2023-07-20T11:34:29;1.15;;;0.25;;
36445;SDS011;22472;50.848;-1.216;2023-07-20T11:36:57;1.90;;;0.30;;
36445;SDS011;22472;50.848;-1.216;2023-07-20T11:39:24;1.02;;;0.30;;
36445;SDS011;22472;50.848;-1.216;2023-07-20T11:41:52;0.98;;;0.28;;
36445;SDS011;22472;50.848;-1.216;2023-07-20T11:44:21;1.02;;;0.30;;
36445;SDS011;22472;50.848;-1.216;2023-07-20T11:46:58;2.10;;;0.30;;
36445;SDS011;22472;50.848;-1.216;2023-07-20T11:49:26;1.85;;;0.30;;
36445;SDS011;22472;50.848;-1.216;2023-07-20T11:51:55;0.80;;;0.30;;
36445;SDS011;22472;50.848;-1.216;2023-07-20T11:54:23;1.85;;;0.38;;
36445;SDS011;22472;50.848;-1.216;2023-07-20T11:56:53;2.15;;;0.30;;
36445;SDS011;22472;50.848;-1.216;2023-07-20T11:59:21;2.40;;;0.30;;
36445;SDS011;22472;50.848;-1.216;2023-07-20T12:01:49;1.00;;;0.30;;
36445;SDS011;22472;50.848;-1.216;2023-07-20T12:04:16;0.88;;;0.30;;
36445;SDS011;22472;50.848;-1.216;2023-07-20T12:06:44;1.00;;;0.30;;
36445;SDS011;22472;50.848;-1.216;2023-07-20T12:09:15;2.15;;;0.50;;
36445;SDS011;22472;50.848;-1.216;2023-07-20T12:11:44;1.60;;;0.40;;
36445;SDS011;22472;50.848;-1.216;2023-07-20T12:14:11;0.75;;;0.30;;
36445;SDS011;22472;50.848;-1.216;2023-07-20T12:16:39;2.55;;;0.30;;
36445;SDS011;22472;50.848;-1.216;2023-07-20T12:19:06;2.40;;;0.43;;
36445;SDS011;22472;50.848;-1.216;2023-07-20T12:21:34;0.85;;;0.20;;
36445;SDS011;22472;50.848;-1.216;2023-07-20T12:24:02;1.55;;;0.30;;
36445;SDS011;22472;50.848;-1.216;2023-07-20T12:26:31;1.60;;;0.30;;
36445;SDS011;22472;50.848;-1.216;2023-07-20T12:28:59;1.03;;;0.30;;
36445;SDS011;22472;50.848;-1.216;2023-07-20T12:31:28;1.38;;;0.30;;
36445;SDS011;22472;50.848;-1.216;2023-07-20T12:33:56;0.82;;;0.20;;
36445;SDS011;22472;50.848;-1.216;2023-07-20T12:36:24;1.35;;;0.30;;
36445;SDS011;22472;50.848;-1.216;2023-07-20T12:38:51;2.25;;;0.25;;
36445;SDS011;22472;50.848;-1.216;2023-07-20T12:41:18;1.52;;;0.30;;
36445;SDS011;22472;50.848;-1.216;2023-07-20T12:43:47;1.17;;;0.32;;
36445;SDS011;22472;50.848;-1.216;2023-07-20T12:46:15;1.33;;;0.37;;
36445;SDS011;22472;50.848;-1.216;2023-07-20T12:48:42;0.95;;;0.20;;
36445;SDS011;22472;50.848;-1.216;2023-07-20T12:51:09;0.77;;;0.30;;
36445;SDS011;22472;50.848;-1.216;2023-07-20T12:53:37;1.02;;;0.40;;
36445;SDS011;22472;50.848;-1.216;2023-07-20T12:56:05;2.05;;;0.30;;
36445;SDS011;22472;50.848;-1.216;2023-07-20T12:58:32;0.98;;;0.20;;
36445;SDS011;22472;50.848;-1.216;2023-07-20T13:01:01;2.47;;;0.20;;
36445;SDS011;22472;50.848;-1.216;2023-07-20T13:03:28;0.47;;;0.20;;
36445;SDS011;22472;50.848;-1.216;2023-07-20T13:05:55;1.58;;;0.30;;
36445;SDS011;22472;50.848;-1.216;2023-07-20T13:08:23;1.15;;;0.40;;
36445;SDS011;22472;50.848;-1.216;2023-07-20T13:10:52;0.83;;;0.30;;
36445;SDS011;22472;50.848;-1.216;2023-07-20T13:13:19;1.05;;;0.20;;
36445;SDS011;22472;50.848;-1.216;2023-07-20T13:15:47;0.88;;;0.30;;
36445;SDS011;22472;50.848;-1.216;2023-07-20T13:18:16;1.67;;;0.30;;
36445;SDS011;22472;50.848;-1.216;2023-07-20T13:20:46;1.52;;;0.20;;
36445;SDS011;22472;50.848;-1.216;2023-07-20T13:23:13;0.70;;;0.30;;
36445;SDS011;22472;50.848;-1.216;2023-07-20T13:25:41;2.35;;;0.40;;
36445;SDS011;22472;50.848;-1.216;2023-07-20T13:28:08;1.90;;;0.40;;
36445;SDS011;22472;50.848;-1.216;2023-07-20T13:30:35;2.90;;;0.30;;
36445;SDS011;22472;50.848;-1.216;2023-07-20T13:33:02;1.33;;;0.40;;
36445;SDS011;22472;50.848;-1.216;2023-07-20T13:35:31;3.17;;;0.40;;
36445;SDS011;22472;50.848;-1.216;2023-07-20T13:37:59;1.10;;;0.40;;
36445;SDS011;22472;50.848;-1.216;2023-07-20T13:40:26;1.05;;;0.32;;
36445;SDS011;22472;50.848;-1.216;2023-07-20T13:42:53;1.75;;;0.30;;
36445;SDS011;22472;50.848;-1.216;2023-07-20T13:45:21;2.17;;;0.32;;
36445;SDS011;22472;50.848;-1.216;2023-07-20T13:47:48;1.65;;;0.30;;
36445;SDS011;22472;50.848;-1.216;2023-07-20T13:50:15;2.83;;;0.30;;
36445;SDS011;22472;50.848;-1.216;2023-07-20T13:52:44;1.02;;;0.30;;
36445;SDS011;22472;50.848;-1.216;2023-07-20T13:55:11;1.80;;;0.30;;
36445;SDS011;22472;50.848;-1.216;2023-07-20T13:57:39;1.20;;;0.20;;
36445;SDS011;22472;50.848;-1.216;2023-07-20T14:00:07;1.27;;;0.38;;
36445;SDS011;22472;50.848;-1.216;2023-07-20T14:02:36;1.17;;;0.32;;
36445;SDS011;22472;50.848;-1.216;2023-07-20T14:05:03;1.90;;;0.30;;
36445;SDS011;22472;50.848;-1.216;2023-07-20T14:07:31;1.92;;;0.32;;
36445;SDS011;22472;50.848;-1.216;2023-07-20T14:09:59;2.22;;;0.43;;
36445;SDS011;22472;50.848;-1.216;2023-07-20T14:12:27;2.50;;;0.30;;
36445;SDS011;22472;50.848;-1.216;2023-07-20T14:14:54;3.10;;;0.32;;
36445;SDS011;22472;50.848;-1.216;2023-07-20T14:17:21;2.67;;;0.25;;
36445;SDS011;22472;50.848;-1.216;2023-07-20T14:19:49;0.95;;;0.22;;
36445;SDS011;22472;50.848;-1.216;2023-07-20T14:22:17;1.48;;;0.30;;
36445;SDS011;22472;50.848;-1.216;2023-07-20T14:24:44;1.35;;;0.30;;
36445;SDS011;22472;50.848;-1.216;2023-07-20T14:27:13;2.20;;;0.40;;
36445;SDS011;22472;50.848;-1.216;2023-07-20T14:29:40;2.08;;;0.40;;
36445;SDS011;22472;50.848;-1.216;2023-07-20T14:32:07;1.30;;;0.50;;
36445;SDS011;22472;50.848;-1.216;2023-07-20T14:34:35;1.00;;;0.30;;
36445;SDS011;22472;50.848;-1.216;2023-07-20T14:37:02;1.65;;;0.30;;
36445;SDS011;22472;50.848;-1.216;2023-07-20T14:39:30;2.42;;;0.32;;
36445;SDS011;22472;50.848;-1.216;2023-07-20T14:41:57;0.68;;;0.30;;
36445;SDS011;22472;50.848;-1.216;2023-07-20T14:44:26;1.23;;;0.30;;
36445;SDS011;22472;50.848;-1.216;2023-07-20T14:46:54;1.30;;;0.30;;
36445;SDS011;22472;50.848;-1.216;2023-07-20T14:49:21;1.58;;;0.30;;
36445;SDS011;22472;50.848;-1.216;2023-07-20T14:51:48;1.80;;;0.40;;
36445;SDS011;22472;50.848;-1.216;2023-07-20T14:54:16;1.42;;;0.28;;